createdAt,value
2022-11-01T00:00:28.162Z,101891.97
2022-11-01T00:02:56.665Z,101896.28
2022-11-01T00:05:28.259Z,101890.25
2022-11-01T00:07:57.863Z,101877.84
2022-11-01T00:10:35.322Z,101883.09
2022-11-01T00:13:29.177Z,101873.41
2022-11-01T00:16:07.564Z,101882.25
2022-11-01T00:21:25.385Z,101874.28
2022-11-01T00:26:51.535Z,101878.72
2022-11-01T00:29:29.112Z,101875.16
2022-11-01T00:32:19.087Z,101877.81
2022-11-01T00:34:47.363Z,101862.78
2022-11-01T00:37:20.691Z,101860.16
2022-11-01T00:39:48.421Z,101860.28
2022-11-01T00:42:18.275Z,101859.38
2022-11-01T00:44:48.405Z,101860.22
2022-11-01T00:47:15.600Z,101869.00
2022-11-01T00:49:42.989Z,101858.47
2022-11-01T00:52:11.275Z,101851.38
2022-11-01T00:54:39.074Z,101863.72
2022-11-01T00:57:06.738Z,101859.31
2022-11-01T01:00:03.553Z,101872.59
2022-11-01T01:02:35.733Z,101883.13
2022-11-01T01:05:06.967Z,101881.38
2022-11-01T01:07:40.906Z,101888.41
2022-11-01T01:10:08.893Z,101891.06
2022-11-01T01:12:36.363Z,101889.28
2022-11-01T01:15:04.642Z,101891.91
2022-11-01T01:17:35.482Z,101881.34
2022-11-01T01:20:07.534Z,101885.75
2022-11-01T01:22:38.034Z,101879.59
2022-11-01T01:25:06.056Z,101883.97
2022-11-01T01:27:36.213Z,101881.34
2022-11-01T01:30:15.701Z,101880.50
2022-11-01T01:32:43.611Z,101884.97
2022-11-01T01:35:11.199Z,101895.56
2022-11-01T01:37:38.582Z,101892.00
2022-11-01T01:40:07.143Z,101887.56
2022-11-01T01:42:40.667Z,101877.88
2022-11-01T01:45:16.008Z,101876.09
2022-11-01T01:47:50.600Z,101866.38
2022-11-01T01:50:20.820Z,101864.69
2022-11-01T01:53:09.112Z,101867.31
2022-11-01T01:55:49.339Z,101862.03
2022-11-01T01:58:20.057Z,101860.25
2022-11-01T02:00:47.471Z,101858.56
2022-11-01T02:03:23.240Z,101855.00
2022-11-01T02:06:18.734Z,101859.44
2022-11-01T02:09:00.740Z,101851.50
2022-11-01T02:11:28.185Z,101860.31
2022-11-01T02:13:56.518Z,101845.34
2022-11-01T02:16:36.880Z,101839.16
2022-11-01T02:20:00.905Z,101852.38
2022-11-01T02:22:46.718Z,101849.72
2022-11-01T02:25:42.655Z,101848.00
2022-11-01T02:28:51.062Z,101852.34
2022-11-01T02:31:32.790Z,101858.53
2022-11-01T02:34:32.578Z,101851.50
2022-11-01T02:37:13.222Z,101856.78
2022-11-01T02:39:51.930Z,101850.63
2022-11-01T02:42:32.339Z,101856.78
2022-11-01T02:45:11.285Z,101866.47
2022-11-01T02:47:41.381Z,101844.44
2022-11-01T02:50:14.198Z,101848.03
2022-11-01T02:52:48.302Z,101847.16
2022-11-01T02:55:32.436Z,101846.28
2022-11-01T02:58:16.158Z,101841.91
2022-11-01T03:00:44.756Z,101846.31
2022-11-01T03:03:31.916Z,101850.72
2022-11-01T03:06:12.857Z,101849.84
2022-11-01T03:09:15.905Z,101854.28
2022-11-01T03:12:04.304Z,101851.63
2022-11-01T03:14:46.549Z,101851.63
2022-11-01T03:17:53.867Z,101858.66
2022-11-01T03:20:29.979Z,101848.09
2022-11-01T03:23:03.721Z,101848.09
2022-11-01T03:25:42.536Z,101845.47
2022-11-01T03:28:44.632Z,101851.63
2022-11-01T03:31:25.180Z,101854.28
2022-11-01T03:34:27.018Z,101854.28
2022-11-01T03:37:07.467Z,101867.47
2022-11-01T03:39:41.805Z,101866.56
2022-11-01T03:42:15.297Z,101855.16
2022-11-01T03:44:50.130Z,101862.19
2022-11-01T03:47:23.572Z,101865.69
2022-11-01T03:50:19.358Z,101870.97
2022-11-01T03:52:56.031Z,101860.41
2022-11-01T03:55:23.948Z,101872.72
2022-11-01T03:57:57.151Z,101872.72
2022-11-01T04:00:29.043Z,101881.50
2022-11-01T04:03:01.817Z,101879.75
2022-11-01T04:05:31.506Z,101878.00
2022-11-01T04:07:59.335Z,101881.53
2022-11-01T04:10:31.546Z,101878.84
2022-11-01T04:13:07.618Z,101875.31
2022-11-01T04:15:56.570Z,101877.97
2022-11-01T04:18:45.151Z,101872.69
2022-11-01T04:21:40.154Z,101882.38
2022-11-01T04:24:11.299Z,101877.97
2022-11-01T04:26:42.757Z,101888.53
2022-11-01T04:29:12.404Z,101883.25
2022-11-01T04:31:42.423Z,101877.97
2022-11-01T04:34:33.134Z,101884.13
2022-11-01T04:37:03.863Z,101892.94
2022-11-01T04:39:31.089Z,101894.63
2022-11-01T04:41:58.430Z,101896.41
2022-11-01T04:44:28.668Z,101906.09
2022-11-01T04:46:56.899Z,101909.56
2022-11-01T04:49:47.386Z,101906.03
2022-11-01T04:52:14.925Z,101911.28
2022-11-01T04:54:42.459Z,101917.41
2022-11-01T04:57:23.502Z,101924.44
2022-11-01T04:59:58.363Z,101925.28
2022-11-01T05:02:25.815Z,101922.63
2022-11-01T05:04:53.146Z,101918.22
2022-11-01T05:07:20.658Z,101922.56
2022-11-01T05:09:47.808Z,101926.97
2022-11-01T05:12:15.420Z,101933.06
2022-11-01T05:14:45.110Z,101929.53
2022-11-01T05:17:12.345Z,101931.22
2022-11-01T05:19:39.596Z,101935.63
2022-11-01T05:22:08.304Z,101931.16
2022-11-01T05:24:35.694Z,101933.88
2022-11-01T05:27:04.722Z,101946.16
2022-11-01T05:29:33.271Z,101952.19
2022-11-01T05:32:01.369Z,101951.31
2022-11-01T05:34:28.868Z,101955.72
2022-11-01T05:36:59.782Z,101956.69
2022-11-01T05:39:29.706Z,101946.16
2022-11-01T05:42:00.008Z,101946.03
2022-11-01T05:44:33.705Z,101950.44
2022-11-01T05:47:05.927Z,101958.34
2022-11-01T05:49:33.344Z,101954.81
2022-11-01T05:52:04.160Z,101952.19
2022-11-01T05:54:34.457Z,101949.56
2022-11-01T05:57:08.350Z,101954.84
2022-11-01T05:59:43.817Z,101953.94
2022-11-01T06:02:12.551Z,101965.31
2022-11-01T06:04:45.512Z,101964.25
2022-11-01T06:07:17.292Z,101968.81
2022-11-01T06:09:50.639Z,101971.38
2022-11-01T06:12:20.459Z,101974.09
2022-11-01T06:14:56.116Z,101974.16
2022-11-01T06:17:28.812Z,101969.69
2022-11-01T06:20:00.351Z,101979.34
2022-11-01T06:24:56.337Z,101977.53
2022-11-01T06:27:36.224Z,101981.00
2022-11-01T06:30:06.375Z,101993.22
2022-11-01T06:35:06.075Z,101997.59
2022-11-01T06:37:34.205Z,101988.03
2022-11-01T06:40:01.502Z,101991.44
2022-11-01T06:42:28.998Z,101993.13
2022-11-01T06:44:57.340Z,101999.31
2022-11-01T06:47:28.573Z,102002.78
2022-11-01T06:49:58.515Z,102006.28
2022-11-01T06:52:26.240Z,102008.88
2022-11-01T06:54:53.693Z,102002.66
2022-11-01T06:57:21.236Z,102002.66
2022-11-01T06:59:51.381Z,102010.69
2022-11-01T07:02:29.664Z,102015.00
2022-11-01T07:05:00.681Z,102018.44
2022-11-01T07:07:28.440Z,102026.44
2022-11-01T07:09:58.214Z,102027.41
2022-11-01T07:12:25.407Z,102031.50
2022-11-01T07:14:52.676Z,102034.28
2022-11-01T07:17:20.301Z,102029.88
2022-11-01T07:19:47.452Z,102027.28
2022-11-01T07:22:15.182Z,102037.84
2022-11-01T07:24:42.527Z,102041.34
2022-11-01T07:27:16.425Z,102044.00
2022-11-01T07:29:46.808Z,102046.44
2022-11-01T07:32:13.905Z,102048.16
2022-11-01T07:34:44.342Z,102045.66
2022-11-01T07:37:14.765Z,102061.53
2022-11-01T07:39:42.400Z,102055.31
2022-11-01T07:42:10.740Z,102063.19
2022-11-01T07:44:38.289Z,102061.53
2022-11-01T07:47:05.539Z,102065.97
2022-11-01T07:52:02.838Z,102071.31
2022-11-01T07:54:33.960Z,102076.63
2022-11-01T07:57:06.486Z,102075.72
2022-11-01T07:59:33.900Z,102083.63
2022-11-01T08:02:05.307Z,102088.88
2022-11-01T08:04:35.702Z,102093.25
2022-11-01T08:07:03.088Z,102093.41
2022-11-01T08:09:31.109Z,102091.66
2022-11-01T08:11:59.801Z,102096.91
2022-11-01T08:14:27.388Z,102093.63
2022-11-01T08:17:00.935Z,102096.47
2022-11-01T08:19:28.640Z,102100.16
2022-11-01T08:22:00.059Z,102090.75
2022-11-01T08:24:28.004Z,102094.50
2022-11-01T08:26:55.218Z,102089.38
2022-11-01T08:29:23.333Z,102091.19
2022-11-01T08:31:50.735Z,102098.28
2022-11-01T08:34:20.330Z,102096.50
2022-11-01T08:36:47.882Z,102095.56
2022-11-01T08:39:15.143Z,102093.72
2022-11-01T08:41:42.512Z,102092.72
2022-11-01T08:44:13.426Z,102082.91
2022-11-01T08:46:43.250Z,102088.00
2022-11-01T08:49:11.621Z,102098.44
2022-11-01T08:51:38.754Z,102096.56
2022-11-01T08:54:08.227Z,102104.34
2022-11-01T08:56:35.610Z,102092.50
2022-11-01T08:59:05.051Z,102097.72
2022-11-01T09:01:38.495Z,102099.22
2022-11-01T09:04:06.621Z,102103.38
2022-11-01T09:06:36.378Z,102100.72
2022-11-01T09:09:05.251Z,102107.91
2022-11-01T09:11:32.870Z,102112.78
2022-11-01T09:14:04.256Z,102123.94
2022-11-01T09:16:33.799Z,102120.22
2022-11-01T09:19:18.743Z,102124.41
2022-11-01T09:21:47.268Z,102125.22
2022-11-01T09:24:16.228Z,102140.84
2022-11-01T09:26:44.197Z,102129.72
2022-11-01T09:29:12.190Z,102135.75
2022-11-01T09:31:39.476Z,102130.59
2022-11-01T09:34:06.645Z,102137.16
2022-11-01T09:36:37.014Z,102134.34
2022-11-01T09:39:04.473Z,102141.44
2022-11-01T09:41:36.755Z,102142.97
2022-11-01T09:44:08.462Z,102143.16
2022-11-01T09:46:59.751Z,102143.88
2022-11-01T09:49:32.299Z,102146.91
2022-11-01T09:52:00.368Z,102144.16
2022-11-01T09:54:32.363Z,102151.56
2022-11-01T09:57:22.150Z,102148.94
2022-11-01T09:59:59.748Z,102148.09
2022-11-01T10:02:51.019Z,102140.34
2022-11-01T10:05:42.415Z,102149.09
2022-11-01T10:08:51.914Z,102143.94
2022-11-01T10:11:53.517Z,102150.50
2022-11-01T10:14:37.522Z,102140.75
2022-11-01T10:17:22.751Z,102144.84
2022-11-01T10:19:57.445Z,102136.59
2022-11-01T10:22:41.209Z,102142.19
2022-11-01T10:25:47.709Z,102149.38
2022-11-01T10:28:52.265Z,102145.16
2022-11-01T10:31:31.667Z,102144.81
2022-11-01T10:34:19.473Z,102145.56
2022-11-01T10:36:51.316Z,102156.91
2022-11-01T10:39:56.768Z,102161.22
2022-11-01T10:42:28.981Z,102160.31
2022-11-01T10:45:01.328Z,102160.28
2022-11-01T10:47:29.496Z,102167.25
2022-11-01T10:50:07.054Z,102168.53
2022-11-01T10:52:53.062Z,102175.13
2022-11-01T10:55:39.237Z,102173.00
2022-11-01T10:58:34.799Z,102183.19
2022-11-01T11:01:04.847Z,102170.34
2022-11-01T11:03:32.973Z,102169.56
2022-11-01T11:06:06.161Z,102165.38
2022-11-01T11:08:37.793Z,102159.81
2022-11-01T11:11:15.073Z,102162.50
2022-11-01T11:13:47.288Z,102167.28
2022-11-01T11:16:30.738Z,102162.97
2022-11-01T11:19:02.381Z,102160.25
2022-11-01T11:21:34.776Z,102160.72
2022-11-01T11:24:03.716Z,102152.97
2022-11-01T11:29:40.213Z,102147.81
2022-11-01T11:32:32.393Z,102150.06
2022-11-01T11:35:04.290Z,102142.44
2022-11-01T11:37:38.441Z,102141.31
2022-11-01T11:40:20.090Z,102143.88
2022-11-01T11:42:49.579Z,102138.38
2022-11-01T11:45:23.590Z,102140.00
2022-11-01T11:47:51.256Z,102138.31
2022-11-01T11:50:26.093Z,102127.63
2022-11-01T11:53:03.718Z,102132.00
2022-11-01T11:55:42.417Z,102135.06
2022-11-01T11:58:34.349Z,102136.03
2022-11-01T12:01:07.653Z,102133.03
2022-11-01T12:03:45.440Z,102134.41
2022-11-01T12:06:31.252Z,102136.47
2022-11-01T12:09:00.937Z,102133.31
2022-11-01T12:11:46.271Z,102135.03
2022-11-01T12:14:26.963Z,102135.09
2022-11-01T12:16:54.658Z,102135.03
2022-11-01T12:19:32.590Z,102134.03
2022-11-01T12:22:13.857Z,102123.69
2022-11-01T12:24:54.464Z,102124.72
2022-11-01T12:27:26.224Z,102120.66
2022-11-01T12:30:06.270Z,102117.69
2022-11-01T12:32:47.932Z,102112.84
2022-11-01T12:35:22.997Z,102112.50
2022-11-01T12:38:10.578Z,102104.81
2022-11-01T12:40:47.208Z,102099.06
2022-11-01T12:43:32.907Z,102102.78
2022-11-01T12:46:19.193Z,102098.22
2022-11-01T12:48:57.477Z,102087.09
2022-11-01T12:51:32.464Z,102097.94
2022-11-01T12:54:10.676Z,102081.44
2022-11-01T12:56:37.863Z,102089.75
2022-11-01T12:59:06.189Z,102084.59
2022-11-01T13:01:56.935Z,102084.38
2022-11-01T13:04:31.573Z,102079.34
2022-11-01T13:07:21.069Z,102081.47
2022-11-01T13:09:55.123Z,102084.41
2022-11-01T13:12:53.527Z,102077.75
2022-11-01T13:16:01.779Z,102073.53
2022-11-01T13:18:44.413Z,102080.13
2022-11-01T13:21:20.785Z,102076.53
2022-11-01T13:24:14.985Z,102078.78
2022-11-01T13:26:50.767Z,102068.00
2022-11-01T13:29:36.186Z,102073.09
2022-11-01T13:32:28.432Z,102069.38
2022-11-01T13:35:32.207Z,102077.09
2022-11-01T13:38:06.284Z,102071.44
2022-11-01T13:40:43.007Z,102069.19
2022-11-01T13:43:16.405Z,102066.81
2022-11-01T13:46:19.242Z,102058.50
2022-11-01T13:49:05.173Z,102060.75
2022-11-01T13:52:01.742Z,102064.09
2022-11-01T13:54:34.913Z,102062.06
2022-11-01T13:57:12.609Z,102055.97
2022-11-01T13:59:46.094Z,102055.88
2022-11-01T14:02:31.283Z,102054.66
2022-11-01T14:05:08.954Z,102057.69
2022-11-01T14:07:45.666Z,102062.50
2022-11-01T14:10:22.383Z,102063.69
2022-11-01T14:13:12.099Z,102061.78
2022-11-01T14:15:54.322Z,102057.56
2022-11-01T14:18:22.724Z,102062.81
2022-11-01T14:20:55.059Z,102069.97
2022-11-01T14:23:28.353Z,102060.25
2022-11-01T14:26:22.687Z,102062.22
2022-11-01T14:28:52.566Z,102065.75
2022-11-01T14:31:24.096Z,102076.31
2022-11-01T14:33:56.151Z,102074.69
2022-11-01T14:36:31.931Z,102074.25
2022-11-01T14:39:21.329Z,102075.00
2022-11-01T14:41:56.010Z,102072.44
2022-11-01T14:44:34.205Z,102072.88
2022-11-01T14:47:18.509Z,102073.44
2022-11-01T14:49:46.427Z,102065.63
2022-11-01T14:52:13.679Z,102068.22
2022-11-01T14:54:48.967Z,102072.34
2022-11-01T14:57:35.732Z,102072.69
2022-11-01T15:00:31.173Z,102082.59
2022-11-01T15:03:01.311Z,102083.25
2022-11-01T15:05:29.190Z,102079.97
2022-11-01T15:08:03.797Z,102086.56
2022-11-01T15:10:41.701Z,102083.94
2022-11-01T15:13:15.744Z,102087.66
2022-11-01T15:15:43.461Z,102085.03
2022-11-01T15:18:19.078Z,102083.47
2022-11-01T15:20:52.039Z,102084.78
2022-11-01T15:23:24.960Z,102095.03
2022-11-01T15:25:56.733Z,102098.88
2022-11-01T15:28:33.997Z,102093.53
2022-11-01T15:31:06.820Z,102096.69
2022-11-01T15:33:35.401Z,102094.88
2022-11-01T15:36:11.668Z,102098.72
2022-11-01T15:38:56.574Z,102095.41
2022-11-01T15:41:32.195Z,102102.78
2022-11-01T15:44:03.745Z,102104.13
2022-11-01T15:46:34.018Z,102095.78
2022-11-01T15:49:07.323Z,102109.78
2022-11-01T15:51:40.958Z,102100.56
2022-11-01T15:54:44.684Z,102107.22
2022-11-01T15:57:20.128Z,102114.41
2022-11-01T16:00:10.231Z,102104.56
2022-11-01T16:03:01.227Z,102105.59
2022-11-01T16:05:35.568Z,102105.72
2022-11-01T16:08:07.353Z,102119.16
2022-11-01T16:10:35.831Z,102117.28
2022-11-01T16:13:04.348Z,102122.78
2022-11-01T16:15:34.084Z,102117.59
2022-11-01T16:18:14.343Z,102124.47
2022-11-01T16:20:43.238Z,102121.00
2022-11-01T16:23:35.000Z,102123.75
2022-11-01T16:26:08.052Z,102121.09
2022-11-01T16:28:43.372Z,102115.81
2022-11-01T16:31:23.926Z,102124.72
2022-11-01T16:33:54.602Z,102136.25
2022-11-01T16:36:44.329Z,102131.91
2022-11-01T16:39:43.173Z,102134.66
2022-11-01T16:42:16.369Z,102134.75
2022-11-01T16:44:45.207Z,102135.63
2022-11-01T16:47:21.674Z,102138.34
2022-11-01T16:49:59.634Z,102145.34
2022-11-01T16:52:32.944Z,102140.34
2022-11-01T16:55:01.853Z,102137.66
2022-11-01T16:57:33.310Z,102141.22
2022-11-01T17:00:15.068Z,102149.16
2022-11-01T17:02:54.648Z,102138.59
2022-11-01T17:05:23.907Z,102151.84
2022-11-01T17:07:54.012Z,102150.97
2022-11-01T17:10:33.768Z,102141.31
2022-11-01T17:13:06.424Z,102137.81
2022-11-01T17:15:54.110Z,102139.59
2022-11-01T17:18:48.448Z,102141.34
2022-11-01T17:21:16.040Z,102144.03
2022-11-01T17:23:47.104Z,102151.97
2022-11-01T17:26:20.101Z,102152.91
2022-11-01T17:28:56.528Z,102162.59
2022-11-01T17:31:39.975Z,102158.19
2022-11-01T17:34:10.400Z,102163.50
2022-11-01T17:36:50.288Z,102165.25
2022-11-01T17:39:20.840Z,102171.44
2022-11-01T17:41:51.772Z,102174.97
2022-11-01T17:44:24.546Z,102180.25
2022-11-01T17:47:03.980Z,102181.13
2022-11-01T17:49:36.562Z,102185.56
2022-11-01T17:52:12.614Z,102191.72
2022-11-01T17:54:54.658Z,102198.75
2022-11-01T17:57:45.228Z,102204.06
2022-11-01T18:00:35.078Z,102199.66
2022-11-01T18:03:08.625Z,102197.94
2022-11-01T18:05:44.916Z,102204.06
2022-11-01T18:08:24.008Z,102200.56
2022-11-01T18:11:24.957Z,102206.72
2022-11-01T18:14:11.580Z,102206.72
2022-11-01T18:16:55.526Z,102209.38
2022-11-01T18:20:09.765Z,102210.25
2022-11-01T18:23:02.147Z,102219.06
2022-11-01T18:25:52.907Z,102215.53
2022-11-01T18:28:40.557Z,102218.19
2022-11-01T18:31:24.312Z,102222.59
2022-11-01T18:34:29.876Z,102228.78
2022-11-01T18:37:33.520Z,102222.63
2022-11-01T18:40:15.855Z,102224.38
2022-11-01T18:42:52.703Z,102225.25
2022-11-01T18:45:33.199Z,102222.63
2022-11-01T18:48:23.195Z,102223.47
2022-11-01T18:51:09.358Z,102223.47
2022-11-01T18:53:45.960Z,102221.72
2022-11-01T18:56:30.596Z,102224.38
2022-11-01T18:59:03.567Z,102220.84
2022-11-01T19:01:32.135Z,102224.34
2022-11-01T19:04:25.566Z,102231.41
2022-11-01T19:07:18.571Z,102228.78
2022-11-01T19:10:14.815Z,102232.31
2022-11-01T19:12:44.328Z,102236.72
2022-11-01T19:15:20.826Z,102234.06
2022-11-01T19:18:00.282Z,102234.97
2022-11-01T19:20:33.431Z,102232.31
2022-11-01T19:23:13.459Z,102239.38
2022-11-01T19:25:51.470Z,102247.31
2022-11-01T19:28:30.907Z,102248.16
2022-11-01T19:31:11.387Z,102240.25
2022-11-01T19:33:47.125Z,102242.00
2022-11-01T19:36:21.943Z,102242.91
2022-11-01T19:38:50.133Z,102240.25
2022-11-01T19:41:35.691Z,102243.75
2022-11-01T19:44:15.660Z,102244.66
2022-11-01T19:46:45.848Z,102242.88
2022-11-01T19:49:27.768Z,102237.59
2022-11-01T19:52:13.695Z,102234.91
2022-11-01T19:54:46.237Z,102231.41
2022-11-01T19:57:45.313Z,102233.16
2022-11-01T20:00:30.330Z,102231.41
2022-11-01T20:03:22.661Z,102226.97
2022-11-01T20:05:57.667Z,102222.59
2022-11-01T20:08:35.524Z,102221.69
2022-11-01T20:11:03.449Z,102225.22
2022-11-01T20:13:30.797Z,102230.50
2022-11-01T20:15:58.022Z,102240.16
2022-11-01T20:18:31.601Z,102239.28
2022-11-01T20:20:58.919Z,102240.13
2022-11-01T20:23:29.143Z,102242.78
2022-11-01T20:25:56.966Z,102247.16
2022-11-01T20:28:24.816Z,102250.66
2022-11-01T20:30:52.600Z,102246.22
2022-11-01T20:33:25.999Z,102249.75
2022-11-01T20:35:54.321Z,102238.25
2022-11-01T20:38:21.489Z,102247.06
2022-11-01T20:40:48.875Z,102239.13
2022-11-01T20:43:16.395Z,102245.28
2022-11-01T20:45:47.146Z,102241.78
2022-11-01T20:48:21.672Z,102247.06
2022-11-01T20:50:49.376Z,102234.72
2022-11-01T20:53:19.185Z,102234.72
2022-11-01T20:55:46.738Z,102237.38
2022-11-01T20:58:16.322Z,102237.31
2022-11-01T21:00:52.116Z,102232.97
2022-11-01T21:03:28.017Z,102236.44
2022-11-01T21:06:20.086Z,102239.91
2022-11-01T21:08:56.853Z,102246.88
2022-11-01T21:11:55.865Z,102250.31
2022-11-01T21:14:47.317Z,102252.78
2022-11-01T21:17:32.967Z,102252.81
2022-11-01T21:20:32.245Z,102256.38
2022-11-01T21:23:32.183Z,102259.78
2022-11-01T21:26:44.983Z,102258.91
2022-11-01T21:29:48.705Z,102251.78
2022-11-01T21:32:57.528Z,102250.03
2022-11-01T21:45:56.486Z,102260.31
2022-11-01T21:48:54.034Z,102260.31
2022-11-01T21:54:55.281Z,102258.59
2022-11-01T21:57:33.130Z,102261.25
2022-11-01T22:03:07.785Z,102259.44
2022-11-01T22:05:36.969Z,102262.09
2022-11-01T22:08:07.008Z,102257.72
2022-11-01T22:10:44.898Z,102264.63
2022-11-01T22:13:15.685Z,102260.31
2022-11-01T22:15:43.726Z,102262.88
2022-11-01T22:18:25.991Z,102258.56
2022-11-01T22:20:53.856Z,102263.84
2022-11-01T22:23:23.594Z,102264.66
2022-11-01T22:25:52.367Z,102260.19
2022-11-01T22:28:25.741Z,102266.38
2022-11-01T22:31:01.289Z,102260.31
2022-11-01T22:33:29.882Z,102257.59
2022-11-01T22:35:59.995Z,102256.72
2022-11-01T22:38:44.446Z,102251.41
2022-11-01T22:41:32.987Z,102260.16
2022-11-01T22:44:17.238Z,102258.47
2022-11-01T22:47:02.280Z,102260.97
2022-11-01T22:49:47.750Z,102263.69
2022-11-01T22:52:25.244Z,102254.78
2022-11-01T22:55:06.214Z,102267.00
2022-11-01T22:57:37.120Z,102256.63
2022-11-01T23:00:32.033Z,102255.72
2022-11-01T23:03:26.228Z,102254.78
2022-11-01T23:06:03.385Z,102255.75
2022-11-01T23:09:01.108Z,102267.06
2022-11-01T23:11:54.526Z,102271.44
2022-11-01T23:14:42.453Z,102267.78
2022-11-01T23:17:21.943Z,102265.19
2022-11-01T23:19:53.558Z,102267.03
2022-11-01T23:22:27.360Z,102267.00
2022-11-01T23:24:55.284Z,102262.53
2022-11-01T23:27:29.446Z,102259.03
2022-11-01T23:30:01.256Z,102257.25
2022-11-01T23:32:31.594Z,102242.31
2022-11-01T23:35:10.561Z,102255.34
2022-11-01T23:37:40.587Z,102250.06
2022-11-01T23:40:22.852Z,102252.59
2022-11-01T23:42:55.161Z,102260.47
2022-11-01T23:45:36.832Z,102256.13
2022-11-01T23:48:07.758Z,102266.00
2022-11-01T23:50:38.317Z,102258.91
2022-11-01T23:53:17.426Z,102268.53
2022-11-01T23:55:56.266Z,102263.25
2022-11-01T23:58:37.863Z,102251.59
